»·PEaware :: N829SM L52-L88

N829SM :: L52-L88

FLIGHT INFORMATION

Flight Status: Arrived
Operator: Privately registered:
United States
More flights under this callsign
Pilot: Anonymous 23263 (23263)
Aircraft: CESSNA 172 SKYHAWK
(C172)
More flights by this aircraft type
Origin: L52 Oceano Co
United States
Destination: L88 New Cuyama
United States
More flights between these airports :: More routes between these airports
Route:
File this flight plan on PilotEdge
Remarks:
Altitude:
(Current/Filed)
0ft
Speed:
(Current/Filed)
0kts
Departed: 06-Feb-19 08:07 PM
Arrived: 06-Feb-19 08:39 PM
Distance/Time
Traveled:
47nm/0:32
Distance/Time
To Go:
Arrived

Flight Plot

Page will automatically refresh every two minutes.


Map Options




Map Legend


Flown Route
Filed Route
Departure Airport
Arrival Airport
Navaid (VOR, NDB)
Fix

Horizontal Profiles

Position Reports

Time Latitude Longitude Heading Altitude Ground
Speed
06-Feb-19 20:01 35.103091 -120.624062 213 15ft 0kts
06-Feb-19 20:02 35.103091 -120.624062 213 15ft 0kts
06-Feb-19 20:03 35.102996 -120.624039 126 15ft 4kts
06-Feb-19 20:04 35.100075 -120.620486 124 17ft 24kts
06-Feb-19 20:05 35.099943 -120.619334 306 17ft 4kts
06-Feb-19 20:06 35.110198 -120.636426 335 771ft 74kts
06-Feb-19 20:07 35.117822 -120.633419 127 1683ft 74kts
06-Feb-19 20:08 35.106497 -120.610250 115 2617ft 82kts
06-Feb-19 20:09 35.098872 -120.584387 111 3573ft 79kts
06-Feb-19 20:10 35.093181 -120.558572 110 4455ft 79kts
06-Feb-19 20:11 35.088207 -120.532558 112 5283ft 79kts
06-Feb-19 20:12 35.083504 -120.506364 113 6058ft 79kts
06-Feb-19 20:13 35.078830 -120.479648 115 6790ft 80kts
06-Feb-19 20:14 35.074141 -120.452712 116 7398ft 89kts
06-Feb-19 20:15 35.067412 -120.415037 111 7406ft 123kts
06-Feb-19 20:16 35.061032 -120.377439 112 7406ft 109kts
06-Feb-19 20:17 35.054821 -120.341393 113 7405ft 108kts
06-Feb-19 20:18 35.048637 -120.305550 113 7405ft 107kts
06-Feb-19 20:19 35.042494 -120.270000 113 7405ft 107kts
06-Feb-19 20:20 35.036321 -120.234381 113 7405ft 107kts
06-Feb-19 20:21 35.030194 -120.199028 113 7407ft 104kts
06-Feb-19 20:22 35.024278 -120.164953 112 7408ft 101kts
06-Feb-19 20:23 35.018534 -120.131938 111 7409ft 97kts
06-Feb-19 20:24 35.012947 -120.099879 110 7411ft 95kts
06-Feb-19 20:25 35.007426 -120.068586 98 7372ft 102kts
06-Feb-19 20:26 35.000462 -120.028028 99 7419ft 137kts
06-Feb-19 20:27 34.992274 -119.981531 100 7418ft 140kts
06-Feb-19 20:28 34.984211 -119.935644 100 7418ft 137kts
06-Feb-19 20:29 34.976310 -119.890718 100 7418ft 133kts
06-Feb-19 20:30 34.968617 -119.847071 100 7418ft 129kts
06-Feb-19 20:31 34.961156 -119.804826 100 7418ft 125kts
06-Feb-19 20:32 34.952647 -119.765448 119 7117ft 119kts
06-Feb-19 20:33 34.933095 -119.735771 115 6292ft 126kts
06-Feb-19 20:34 34.926129 -119.699786 61 5242ft 115kts
06-Feb-19 20:35 34.922944 -119.664149 90 4224ft 100kts
06-Feb-19 20:37 34.933501 -119.660464 260 3129ft 88kts
06-Feb-19 20:38 34.941712 -119.689695 297 2157ft 58kts
06-Feb-19 20:39 34.942940 -119.691080 19 2152ft 0kts
06-Feb-19 20:40 34.942940 -119.691080 19 2152ft 0kts
06-Feb-19 20:41 34.942940 -119.691080 19 2152ft 0kts
06-Feb-19 20:42 34.942940 -119.691080 19 2152ft 0kts
06-Feb-19 20:43 34.942940 -119.691080 19 2152ft 0kts
06-Feb-19 20:44 34.942940 -119.691080 19 2152ft 0kts
06-Feb-19 20:45 34.942940 -119.691080 19 2152ft 0kts
06-Feb-19 20:46 34.942940 -119.691080 19 2152ft 0kts
06-Feb-19 20:47 34.942940 -119.691080 19 2152ft 0kts
06-Feb-19 20:48 34.942940 -119.691080 19 2152ft 0kts
06-Feb-19 20:49 34.942940 -119.691080 19 2152ft 0kts
06-Feb-19 20:50 34.942940 -119.691080 19 2152ft 0kts
06-Feb-19 20:51 34.942940 -119.691080 19 2152ft 0kts
06-Feb-19 20:52 34.942940 -119.691080 19 2152ft 0kts
06-Feb-19 20:53 34.942940 -119.691080 19 2152ft 0kts

Navigation Log

Ident Type
Flight plan parsing failed, navigation log unavailable